Terminal Aerodrome Forecast
Issued by NWS Billings, MT

Home | Current Version | Previous Version | Text Only | Print | Product List | Glossary Off
Versions: 1 2 3 4 5 6 7 8 9 10 11 12

000
FTUS45 KBYZ 221720
TAFMLS
TAF
KMLS 221720Z 2218/2318 27015G25KT P6SM SKC
     FM230100 24011KT P6SM SKC
     FM231700 25015KT P6SM FEW250=

USA.gov is the U.S. government's official web portal to all federal, state and local government web resources and services.